Madisonville, KY

12:03 AM CST on December 10, 2019 (GMT -0600)
Madisonville

Weather History for K2I0 - October, 2019

Change the Weather History Date:

Wednesday, October 30, 2019

  Actual Average (KOWB) Record (KOWB)
Temperature  
Mean Temperature 54 °F -  
Max Temperature 57 °F 67 °F 86 °F (1950)
Min Temperature 50 °F 42 °F 23 °F (1980)
Degree Days  
Heating Degree Days 12    
Growing Degree Days 4 (Base 50)    
Moisture  
Dew Point 53 °F    
Average Humidity 95    
Maximum Humidity 100    
Minimum Humidity 85    
Precipitation  
Precipitation 0.89 in - - ()
Sea Level Pressure  
Sea Level Pressure 30.00 in    
Wind  
Wind Speed 5 mph ()    
Max Wind Speed 10 mph    
Max Gust Speed -    
Visibility 6.1 miles    
Events Fog , Rain    
Averages and records for this station are not official NWS values.
T = Trace of Precipitation, MM = Missing Value Source: Averaged Metar Reports

Daily Weather History Graph

Daily Weather History Graph

Search for Another Location

Airport or City:

Astronomy

Oct. 30, 2019 Rise Set
Actual Time 7:11 AM CDT 5:53 PM CDT
Civil Twilight 6:45 AM CDT 6:20 PM CDT
Nautical Twilight 6:14 AM CDT 6:51 PM CDT
Astronomical Twilight 5:43 AM CDT 7:21 PM CDT
Moon 9:52 AM CDT (10/30) 8:04 PM CDT (10/30)
Length of Visible Light 11h 35m
Length of Day
10h 41m
Waxing Crescent, 9% of the Moon is Illuminated
Oct 30
Waxing Crescent
Nov 4
First Quarter
Nov 12
Full
Nov 19
Last Quarter
Nov 26
New

Hourly Weather History & Observations

Time (CDT) Temp. Dew Point Humidity Pressure Visibility Wind Dir Wind Speed Gust Speed Precip Events Conditions
12:15 AM 52.9 °F 49.1 °F 87% 30.14 in 5.0 mi NNE 3.5 mph - N/A   Clear
12:35 AM 53.8 °F 50.0 °F 87% 30.14 in 7.0 mi NNE 6.9 mph - N/A   Mostly Cloudy
12:55 AM 54.0 °F 50.0 °F 86% 30.14 in 7.0 mi North 6.9 mph - N/A   Mostly Cloudy
1:15 AM 53.6 °F 49.6 °F 86% 30.14 in 7.0 mi North 6.9 mph - N/A   Overcast
1:35 AM 53.1 °F 49.1 °F 86% 30.13 in 10.0 mi NNE 4.6 mph - N/A   Overcast
1:55 AM 53.2 °F 49.5 °F 87% 30.12 in 10.0 mi North 6.9 mph - N/A   Overcast
2:15 AM 52.9 °F 49.1 °F 87% 30.11 in 10.0 mi NNE 5.8 mph - N/A   Overcast
2:35 AM 52.7 °F 48.6 °F 86% 30.10 in 10.0 mi North 6.9 mph - N/A   Mostly Cloudy
2:55 AM 52.2 °F 48.2 °F 86% 30.09 in 10.0 mi NNE 8.1 mph - N/A   Mostly Cloudy
3:15 AM 51.8 °F 47.5 °F 85% 30.09 in 10.0 mi North 10.4 mph - N/A Rain Light Rain
3:35 AM 52.0 °F 47.7 °F 85% 30.09 in 10.0 mi North 8.1 mph - N/A Rain Rain
3:55 AM 51.8 °F 47.7 °F 86% 30.09 in 7.0 mi North 8.1 mph - 0.01 in Rain Light Rain
4:15 AM 51.8 °F 47.8 °F 86% 30.08 in 7.0 mi NNE 6.9 mph - 0.01 in Rain Light Rain
4:35 AM 51.8 °F 47.7 °F 86% 30.09 in 7.0 mi North 8.1 mph - 0.01 in Rain Rain
4:55 AM 51.1 °F 47.3 °F 87% 30.08 in 7.0 mi North 8.1 mph - 0.03 in Rain Light Rain
5:15 AM 50.9 °F 47.3 °F 87% 30.07 in 7.0 mi NNE 4.6 mph - N/A Rain Light Rain
5:35 AM 51.1 °F 47.5 °F 87% 30.07 in 7.0 mi NE 4.6 mph - N/A   Overcast
5:55 AM 51.3 °F 47.8 °F 88% 30.07 in 7.0 mi NNE 4.6 mph - N/A   Light Drizzle
6:15 AM 51.4 °F 48.2 °F 89% 30.06 in 7.0 mi NE 3.5 mph - 0.01 in   Overcast
6:35 AM 51.6 °F 48.4 °F 89% 30.05 in 7.0 mi ENE 3.5 mph - 0.01 in   Overcast
6:55 AM 52.0 °F 48.4 °F 88% 30.05 in 7.0 mi ENE 3.5 mph - 0.01 in Rain Light Rain
7:15 AM 52.0 °F 48.4 °F 88% 30.06 in 7.0 mi North 4.6 mph - N/A   Light Drizzle
7:55 AM 52.2 °F 49.3 °F 90% 30.05 in 4.0 mi NNE 5.8 mph - 0.05 in Rain Rain
8:15 AM 52.3 °F 50.9 °F 95% 30.05 in 5.0 mi NNE 4.6 mph - N/A Rain Light Rain
8:35 AM 52.9 °F 52.9 °F 100% 30.03 in 5.0 mi ENE 6.9 mph - 0.01 in   Overcast
8:55 AM 53.1 °F 53.1 °F 100% 30.04 in 4.0 mi East 4.6 mph - 0.04 in Rain Heavy Rain
9:15 AM 53.6 °F 52.9 °F 97% 30.04 in 2.5 mi NNE 3.5 mph - 0.03 in Rain Rain
9:35 AM 53.6 °F 53.6 °F 100% 30.02 in 3.0 mi Calm Calm - 0.07 in Rain Light Rain
9:55 AM 53.8 °F 53.8 °F 100% 30.01 in 3.0 mi East 3.5 mph - 0.15 in Rain Rain
10:15 AM 54.5 °F 54.5 °F 100% 30.01 in 4.0 mi Calm Calm - 0.02 in Rain Rain
10:55 AM 55.0 °F 55.0 °F 100% 30.01 in 5.0 mi Calm Calm - 0.07 in Rain Rain
11:15 AM 55.4 °F 55.4 °F 100% 30.00 in 4.0 mi NNE 4.6 mph - 0.03 in Rain Rain
11:35 AM 55.4 °F 55.4 °F 100% 29.98 in 5.0 mi NNE 5.8 mph - 0.07 in Rain Light Rain
11:55 AM 55.4 °F 55.4 °F 100% 30.01 in 4.0 mi South 6.9 mph - 0.13 in Rain Heavy Rain
12:15 PM 55.4 °F 55.4 °F 100% 29.98 in 1.5 mi Calm Calm - 0.15 in Rain Heavy Rain
12:35 PM 55.6 °F 55.6 °F 100% 29.97 in 4.0 mi NW 3.5 mph - 0.24 in Rain Rain
12:55 PM 55.4 °F 55.4 °F 100% 29.95 in 5.0 mi Calm Calm - 0.32 in Rain Heavy Rain
1:15 PM 55.6 °F 55.6 °F 100% 29.92 in 7.0 mi NNE 4.6 mph - 0.03 in Rain Rain
1:35 PM 56.1 °F 56.1 °F 100% 29.91 in 7.0 mi ENE 3.5 mph - 0.06 in Rain Light Rain
1:55 PM 56.8 °F 56.8 °F 100% 29.90 in 10.0 mi NNE 3.5 mph - 0.07 in Rain Light Rain
2:15 PM 57.0 °F 57.0 °F 100% 29.91 in 10.0 mi NE 4.6 mph - 0.01 in Rain Light Rain
2:55 PM 56.8 °F 56.8 °F 100% 29.92 in 10.0 mi NNW 4.6 mph - 0.01 in   Overcast
3:15 PM 56.3 °F 56.3 °F 100% 29.92 in 10.0 mi NNW 5.8 mph - N/A   Overcast
3:35 PM 56.1 °F 56.1 °F 100% 29.92 in 7.0 mi NNW 5.8 mph - N/A   Overcast
3:55 PM 56.3 °F 56.3 °F 100% 29.91 in 10.0 mi NNW 5.8 mph - N/A   Overcast
4:15 PM 56.3 °F 56.3 °F 100% 29.90 in 10.0 mi NNW 5.8 mph - N/A   Overcast
4:35 PM 55.9 °F 55.9 °F 100% 29.91 in 10.0 mi NW 5.8 mph - N/A   Overcast
4:55 PM 55.9 °F 55.9 °F 100% 29.91 in 7.0 mi NNW 4.6 mph - N/A   Overcast
5:15 PM 55.8 °F 55.8 °F 100% 29.91 in 7.0 mi NW 4.6 mph - N/A   Overcast
5:35 PM 55.8 °F 55.8 °F 100% 29.91 in 10.0 mi NNW 3.5 mph - N/A   Overcast
5:55 PM 55.8 °F 55.8 °F 100% 29.92 in 5.0 mi NW 6.9 mph - N/A   Overcast
6:15 PM 55.4 °F 55.4 °F 100% 29.92 in 2.0 mi Calm Calm - N/A   Overcast
6:35 PM 55.4 °F 55.4 °F 100% 29.92 in 1.8 mi NW 3.5 mph - N/A   Overcast
6:55 PM 55.0 °F 55.0 °F 100% 29.93 in 1.5 mi NW 5.8 mph - N/A   Overcast
7:15 PM 54.9 °F 54.9 °F 100% 29.93 in 2.5 mi NW 6.9 mph - N/A   Overcast
7:35 PM 54.7 °F 54.7 °F 100% 29.92 in 5.0 mi Calm Calm - N/A   Overcast
7:55 PM 54.5 °F 54.5 °F 100% 29.92 in 7.0 mi North 3.5 mph - N/A   Overcast
8:15 PM 54.1 °F 54.1 °F 100% 29.91 in 7.0 mi Calm Calm - N/A   Overcast
8:35 PM 54.1 °F 54.1 °F 100% 29.89 in 5.0 mi Calm Calm - N/A   Overcast
9:35 PM 53.8 °F 53.8 °F 100% 29.91 in 0.5 mi WNW 5.8 mph - N/A Fog Fog
9:55 PM 53.6 °F 53.6 °F 100% 29.91 in 1.0 mi NW 4.6 mph - N/A   Overcast
10:15 PM 53.6 °F 53.6 °F 100% 29.92 in 4.0 mi NW 5.8 mph - N/A   Overcast
10:35 PM 53.2 °F 53.2 °F 100% 29.91 in 3.0 mi WNW 3.5 mph - N/A   Overcast
10:55 PM 52.9 °F 52.9 °F 100% 29.89 in 1.0 mi Calm Calm - N/A   Overcast
11:55 PM 52.5 °F 52.5 °F 100% 29.85 in 0.5 mi Calm Calm - N/A Fog Fog